Time;durP1;ratioP1;P1;durP2;ratioP2;P2;SDS_P1;SDS_P2;PMS_P1;PMS_P2;Temp;Humidity;BMP_temperature;BMP_pressure;BME280_temperature;BME280_humidity;BME280_pressure;Samples;Min_cycle;Max_cycle;Signal;HPM_P1;HPM_P2
2021/09/19 00:01:18;;;;;;;11.10;1.60;;;18.00;99.90;;;;;;5012787;28;20195;-86
2021/09/19 00:03:44;;;;;;;6.57;1.45;;;18.10;99.90;;;;;;5051251;28;20109;-86
2021/09/19 00:06:10;;;;;;;8.40;1.40;;;18.10;99.90;;;;;;5040764;28;20093;-86
2021/09/19 00:08:36;;;;;;;10.13;1.48;;;18.10;99.90;;;;;;5032739;28;20481;-86
2021/09/19 00:11:02;;;;;;;8.57;2.00;;;18.10;99.90;;;;;;5030194;28;20044;-86
2021/09/19 00:13:28;;;;;;;14.27;2.25;;;18.10;99.90;;;;;;5044981;28;20413;-86
2021/09/19 00:15:54;;;;;;;11.73;1.75;;;18.10;99.90;;;;;;5049302;28;20028;-86
2021/09/19 00:18:20;;;;;;;11.35;1.60;;;18.10;99.90;;;;;;5030593;28;20094;-86
2021/09/19 00:20:46;;;;;;;9.73;1.70;;;18.10;99.90;;;;;;5045079;28;20021;-87
2021/09/19 00:23:12;;;;;;;14.93;2.00;;;18.00;99.90;;;;;;5033520;28;20045;-86
2021/09/19 00:25:39;;;;;;;7.07;1.27;;;18.10;99.90;;;;;;5038020;28;20527;-86
2021/09/19 00:28:05;;;;;;;12.80;1.92;;;18.00;99.90;;;;;;5023326;28;20449;-86
2021/09/19 00:30:32;;;;;;;12.45;2.38;;;18.00;99.90;;;;;;5033540;28;20018;-87
2021/09/19 00:32:59;;;;;;;9.07;1.38;;;18.00;99.90;;;;;;5027819;28;20017;-87
2021/09/19 00:35:26;;;;;;;11.65;1.58;;;18.00;99.90;;;;;;5028717;28;20439;-86
2021/09/19 00:37:52;;;;;;;8.55;1.40;;;18.00;99.90;;;;;;5046911;28;20025;-86
2021/09/19 00:40:17;;;;;;;10.40;1.45;;;18.00;99.90;;;;;;5049740;28;20413;-87
2021/09/19 00:42:43;;;;;;;7.10;1.55;;;17.90;99.90;;;;;;5047848;28;20116;-87
2021/09/19 00:45:13;;;;;;;10.93;1.83;;;18.00;99.90;;;;;;5051014;28;20041;-87
2021/09/19 00:47:40;;;;;;;9.93;1.75;;;18.00;99.90;;;;;;5051078;28;20025;-87
2021/09/19 00:50:08;;;;;;;17.38;1.80;;;17.90;99.90;;;;;;5045473;28;20025;-87
2021/09/19 00:52:35;;;;;;;10.05;1.50;;;17.90;99.90;;;;;;5042312;28;20053;-86
2021/09/19 00:55:01;;;;;;;11.77;1.75;;;18.00;99.90;;;;;;5043570;28;20499;-86
2021/09/19 00:57:28;;;;;;;10.95;1.85;;;18.00;99.90;;;;;;5026049;28;20471;-86
2021/09/19 00:59:54;;;;;;;9.75;1.70;;;18.00;99.90;;;;;;5020668;28;20072;-86
2021/09/19 01:02:21;;;;;;;10.95;2.00;;;18.00;99.90;;;;;;5042111;28;20300;-86
2021/09/19 01:04:47;;;;;;;8.95;2.38;;;17.90;99.90;;;;;;5015653;28;20021;-86
2021/09/19 01:07:15;;;;;;;9.70;1.95;;;17.90;99.90;;;;;;5032553;28;20057;-86
2021/09/19 01:09:41;;;;;;;11.60;3.30;;;17.80;99.90;;;;;;5034866;28;20381;-88
2021/09/19 01:12:11;;;;;;;13.20;3.58;;;17.80;99.90;;;;;;5051571;28;20035;-86
2021/09/19 01:14:39;;;;;;;9.23;3.60;;;17.80;99.90;;;;;;5035876;28;20661;-86
2021/09/19 01:17:06;;;;;;;13.90;3.17;;;17.80;99.90;;;;;;5014554;28;20057;-86
2021/09/19 01:19:34;;;;;;;11.98;2.75;;;17.80;99.90;;;;;;5014496;28;20037;-86
2021/09/19 01:22:00;;;;;;;7.68;2.20;;;17.80;99.90;;;;;;5032259;28;20036;-87
2021/09/19 01:24:27;;;;;;;8.15;1.90;;;17.70;99.90;;;;;;5014507;28;20021;-86
2021/09/19 01:26:53;;;;;;;9.63;1.70;;;17.70;99.90;;;;;;5016380;28;20099;-86
2021/09/19 01:29:20;;;;;;;13.35;1.80;;;17.70;99.90;;;;;;5041515;28;20044;-86
2021/09/19 01:31:46;;;;;;;9.90;2.10;;;17.70;99.90;;;;;;5032517;28;20025;-86
2021/09/19 01:34:12;;;;;;;7.57;1.55;;;17.70;99.90;;;;;;5032179;28;20397;-86
2021/09/19 01:36:38;;;;;;;15.63;2.67;;;17.60;99.90;;;;;;5032074;28;20036;-86
2021/09/19 01:39:10;;;;;;;14.77;1.80;;;17.60;99.90;;;;;;5040809;28;20022;-86
2021/09/19 01:41:37;;;;;;;7.15;1.45;;;17.60;99.90;;;;;;5038364;28;20148;-86
2021/09/19 01:44:05;;;;;;;13.30;1.80;;;17.60;99.90;;;;;;5031641;28;20025;-86
2021/09/19 01:46:31;;;;;;;13.77;2.05;;;17.60;99.90;;;;;;5031931;28;20037;-86
2021/09/19 01:48:57;;;;;;;12.32;1.95;;;17.60;99.90;;;;;;5031687;28;20262;-86
2021/09/19 01:51:23;;;;;;;14.23;2.03;;;17.60;99.90;;;;;;5012481;28;20262;-86
2021/09/19 01:53:50;;;;;;;11.82;1.80;;;17.60;99.90;;;;;;5031719;28;20160;-86
2021/09/19 01:56:17;;;;;;;16.30;2.30;;;17.60;99.90;;;;;;5031488;28;20025;-86
2021/09/19 01:58:52;;;;;;;12.40;2.22;;;17.60;99.90;;;;;;5021850;28;20052;-86
2021/09/19 02:01:22;;;;;;;15.98;2.65;;;17.60;99.90;;;;;;5028468;28;20112;-86
2021/09/19 02:03:50;;;;;;;13.38;2.25;;;17.50;99.90;;;;;;5046514;28;20043;-86
2021/09/19 02:06:16;;;;;;;16.23;2.72;;;17.60;99.90;;;;;;5034106;28;20025;-86
2021/09/19 02:08:42;;;;;;;19.50;2.53;;;17.60;99.90;;;;;;5040317;28;20048;-86
2021/09/19 02:11:10;;;;;;;10.70;1.40;;;17.60;99.90;;;;;;5039484;28;20094;-86
2021/09/19 02:13:37;;;;;;;11.63;2.25;;;17.70;99.90;;;;;;5049666;28;20499;-86
2021/09/19 02:16:05;;;;;;;15.98;2.08;;;17.70;99.90;;;;;;5050301;28;20096;-86
2021/09/19 02:18:31;;;;;;;11.45;2.40;;;17.70;99.90;;;;;;5044855;28;20501;-86
2021/09/19 02:20:57;;;;;;;14.95;2.00;;;17.70;99.90;;;;;;5044668;28;20029;-86
2021/09/19 02:23:23;;;;;;;9.30;1.95;;;17.70;99.90;;;;;;5025773;28;20039;-86
2021/09/19 02:25:49;;;;;;;9.65;1.80;;;17.70;99.90;;;;;;5044104;28;20453;-86
2021/09/19 02:28:16;;;;;;;12.00;2.00;;;17.60;99.90;;;;;;5044506;28;20029;-86
2021/09/19 02:30:42;;;;;;;9.93;1.83;;;17.50;99.90;;;;;;5042839;28;20075;-86
2021/09/19 02:33:08;;;;;;;11.07;1.60;;;17.40;99.90;;;;;;5044221;28;20034;-86
2021/09/19 02:35:34;;;;;;;9.85;2.83;;;17.40;99.90;;;;;;5048365;28;20454;-86
2021/09/19 02:37:59;;;;;;;8.50;1.70;;;17.30;99.90;;;;;;5047748;28;20056;-86
2021/09/19 02:40:26;;;;;;;9.25;2.25;;;17.20;99.90;;;;;;5049046;28;20025;-87
2021/09/19 02:42:53;;;;;;;9.93;1.73;;;17.20;99.90;;;;;;5025154;28;20079;-86
2021/09/19 02:45:20;;;;;;;10.90;1.58;;;17.20;99.90;;;;;;5038880;28;20049;-86
2021/09/19 02:47:46;;;;;;;11.18;1.75;;;17.20;99.90;;;;;;5044086;28;20013;-87
2021/09/19 02:50:18;;;;;;;11.50;2.33;;;17.20;99.90;;;;;;5024087;28;20076;-86
2021/09/19 02:52:44;;;;;;;15.20;2.38;;;17.30;99.90;;;;;;5028323;28;20071;-86
2021/09/19 02:55:10;;;;;;;14.00;2.08;;;17.40;99.90;;;;;;5034424;28;20021;-86
2021/09/19 02:57:37;;;;;;;13.50;2.25;;;17.50;99.90;;;;;;5041740;28;20044;-86
2021/09/19 03:00:06;;;;;;;13.07;1.77;;;17.60;99.90;;;;;;5044529;28;20028;-86
2021/09/19 03:02:32;;;;;;;12.02;2.28;;;17.70;99.90;;;;;;5023536;28;20032;-86
2021/09/19 03:04:58;;;;;;;10.40;1.98;;;17.80;99.90;;;;;;5041444;28;20032;-86
2021/09/19 03:07:23;;;;;;;13.77;2.25;;;17.90;99.90;;;;;;5045632;28;20032;-86
2021/09/19 03:09:49;;;;;;;11.93;2.10;;;17.90;99.90;;;;;;5047683;28;20025;-86
2021/09/19 03:12:15;;;;;;;13.82;2.33;;;17.80;99.90;;;;;;5046443;28;20098;-86
2021/09/19 03:14:41;;;;;;;8.30;1.60;;;17.80;99.90;;;;;;5049042;28;20021;-86
2021/09/19 03:17:06;;;;;;;7.47;1.83;;;17.70;99.90;;;;;;5032061;28;20028;-86
2021/09/19 03:19:32;;;;;;;12.88;1.83;;;17.60;99.90;;;;;;5040822;28;20029;-86
2021/09/19 03:21:58;;;;;;;9.07;1.80;;;17.60;99.90;;;;;;5024413;28;20080;-86
2021/09/19 03:24:23;;;;;;;10.45;1.80;;;17.50;99.90;;;;;;5038071;28;20032;-86
2021/09/19 03:26:49;;;;;;;14.93;2.70;;;17.50;99.90;;;;;;5029827;28;20025;-86
2021/09/19 03:29:15;;;;;;;13.32;2.72;;;17.40;99.90;;;;;;5029906;28;20101;-86
2021/09/19 03:31:40;;;;;;;12.65;1.95;;;17.60;99.90;;;;;;5030036;28;20083;-84
2021/09/19 03:34:06;;;;;;;21.33;3.45;;;17.70;99.90;;;;;;5012211;28;20541;-84
2021/09/19 03:36:32;;;;;;;44.65;4.18;;;17.60;99.90;;;;;;5029587;28;20425;-84
2021/09/19 03:38:57;;;;;;;15.07;2.80;;;17.30;99.90;;;;;;5029824;28;20099;-80
2021/09/19 03:41:26;;;;;;;17.02;2.60;;;17.10;99.90;;;;;;5029594;28;20024;-81
2021/09/19 03:43:53;;;;;;;14.25;3.10;;;17.00;99.90;;;;;;5029664;28;20441;-82
2021/09/19 03:46:19;;;;;;;27.00;3.80;;;17.00;99.90;;;;;;5029777;28;20109;-83
2021/09/19 03:48:45;;;;;;;15.75;3.22;;;17.00;99.90;;;;;;5012251;28;20537;-82
2021/09/19 03:51:10;;;;;;;18.38;3.28;;;17.00;99.90;;;;;;5011734;28;20408;-83
2021/09/19 03:53:36;;;;;;;12.05;2.72;;;17.00;99.90;;;;;;5029334;28;20033;-82
2021/09/19 03:56:02;;;;;;;10.10;2.10;;;17.10;99.90;;;;;;5029767;28;20021;-82
2021/09/19 03:58:27;;;;;;;8.23;2.58;;;17.00;99.90;;;;;;5026444;28;20021;-82
2021/09/19 04:00:53;;;;;;;10.80;3.10;;;17.10;99.90;;;;;;5029763;28;20021;-82
2021/09/19 04:03:18;;;;;;;7.72;2.78;;;17.00;99.90;;;;;;5029790;28;20037;-82
2021/09/19 04:05:44;;;;;;;8.98;3.10;;;17.00;99.90;;;;;;5029725;28;20101;-83
2021/09/19 04:08:10;;;;;;;9.77;2.78;;;17.00;99.90;;;;;;5012029;28;20462;-82
2021/09/19 04:10:35;;;;;;;6.25;3.08;;;17.10;99.90;;;;;;5029419;28;20462;-82
2021/09/19 04:13:01;;;;;;;7.13;3.17;;;17.10;99.90;;;;;;5029603;28;20029;-83
2021/09/19 04:15:27;;;;;;;6.30;3.10;;;17.10;99.90;;;;;;5028119;28;20547;-83
2021/09/19 04:17:52;;;;;;;9.38;3.10;;;17.10;99.90;;;;;;5032647;28;20540;-83
2021/09/19 04:20:18;;;;;;;10.02;3.42;;;17.10;99.90;;;;;;5029593;28;20409;-83
2021/09/19 04:22:44;;;;;;;7.05;3.00;;;17.00;99.90;;;;;;5029249;28;20075;-82
2021/09/19 04:25:10;;;;;;;8.15;2.80;;;17.10;99.90;;;;;;5029523;28;20053;-83
2021/09/19 04:27:37;;;;;;;6.22;2.72;;;17.10;99.90;;;;;;5029054;28;20486;-83
2021/09/19 04:30:04;;;;;;;8.70;2.80;;;17.20;99.90;;;;;;5038654;28;20017;-82
2021/09/19 04:32:30;;;;;;;11.13;3.00;;;17.20;99.90;;;;;;5032945;28;20420;-82
2021/09/19 04:34:56;;;;;;;7.40;2.85;;;17.20;99.90;;;;;;5029332;28;20025;-81
2021/09/19 04:37:21;;;;;;;8.60;2.70;;;17.20;99.90;;;;;;5029334;28;20033;-82
2021/09/19 04:39:48;;;;;;;9.82;2.45;;;17.30;99.90;;;;;;5029349;28;20005;-82
2021/09/19 04:42:14;;;;;;;8.80;2.78;;;17.30;99.90;;;;;;5029231;28;20300;-82
2021/09/19 04:44:41;;;;;;;10.00;2.00;;;17.30;99.90;;;;;;5028103;28;20017;-82
2021/09/19 04:47:07;;;;;;;22.35;3.13;;;17.30;99.90;;;;;;5043217;28;20476;-83
2021/09/19 04:49:33;;;;;;;15.55;2.28;;;17.30;99.90;;;;;;5043103;28;20039;-83
2021/09/19 04:52:00;;;;;;;14.05;2.72;;;17.30;99.90;;;;;;5046998;28;20045;-83
2021/09/19 04:54:26;;;;;;;14.75;3.28;;;17.20;99.90;;;;;;5031069;28;20083;-82
2021/09/19 04:56:53;;;;;;;22.25;4.13;;;17.20;99.90;;;;;;5051297;28;20075;-82
2021/09/19 04:59:19;;;;;;;18.65;3.95;;;17.10;99.90;;;;;;5038070;28;20074;-82
2021/09/19 05:01:44;;;;;;;12.55;2.70;;;17.00;99.90;;;;;;5040208;28;20408;-83
2021/09/19 05:04:10;;;;;;;18.63;3.72;;;16.90;99.90;;;;;;5046435;28;20030;-83
2021/09/19 05:06:36;;;;;;;13.65;3.30;;;16.90;99.90;;;;;;5023145;28;20033;-83
2021/09/19 05:09:03;;;;;;;18.83;3.65;;;16.90;99.90;;;;;;5048129;28;20021;-83
2021/09/19 05:11:28;;;;;;;20.65;3.70;;;16.90;99.90;;;;;;5027954;28;20400;-83
2021/09/19 05:13:54;;;;;;;24.88;4.15;;;16.90;99.90;;;;;;5048791;28;20104;-84
2021/09/19 05:16:20;;;;;;;22.38;3.92;;;16.80;99.90;;;;;;5049290;28;20028;-84
2021/09/19 05:18:45;;;;;;;27.05;4.50;;;16.80;99.90;;;;;;5049510;28;20025;-83
2021/09/19 05:21:11;;;;;;;18.77;3.10;;;16.80;99.90;;;;;;5040441;28;20390;-87
2021/09/19 05:23:37;;;;;;;16.15;3.13;;;16.70;99.90;;;;;;5040106;28;20037;-88
2021/09/19 05:26:03;;;;;;;18.85;3.30;;;16.70;99.90;;;;;;5023240;28;20485;-88
2021/09/19 05:28:28;;;;;;;13.75;2.70;;;16.60;99.90;;;;;;5045245;28;20116;-88
2021/09/19 05:30:54;;;;;;;14.88;2.38;;;16.70;99.90;;;;;;5047736;28;20037;-89
2021/09/19 05:33:20;;;;;;;15.35;2.60;;;16.60;99.90;;;;;;5043229;28;20096;-90
2021/09/19 05:35:46;;;;;;;30.25;4.03;;;16.70;99.90;;;;;;5023467;28;20021;-89
2021/09/19 05:38:12;;;;;;;19.65;3.08;;;16.70;99.90;;;;;;5028590;28;20523;-88
2021/09/19 05:40:38;;;;;;;18.23;3.28;;;16.70;99.90;;;;;;5017351;28;20065;-90
2021/09/19 05:43:04;;;;;;;22.30;3.35;;;16.70;99.90;;;;;;5040657;28;20612;-88
2021/09/19 05:45:31;;;;;;;15.60;2.65;;;16.70;99.90;;;;;;5046427;28;20013;-86
2021/09/19 05:47:58;;;;;;;24.13;3.33;;;16.70;99.90;;;;;;5050986;28;20048;-85
2021/09/19 05:50:24;;;;;;;19.90;3.17;;;16.70;99.90;;;;;;5049581;28;20021;-85
2021/09/19 05:52:49;;;;;;;14.65;2.80;;;16.70;99.90;;;;;;5050397;28;20041;-85
2021/09/19 05:55:15;;;;;;;17.90;2.08;;;16.70;99.90;;;;;;5013529;28;20037;-85
2021/09/19 05:57:41;;;;;;;21.13;2.63;;;16.60;99.90;;;;;;5030229;28;20018;-84
2021/09/19 06:00:08;;;;;;;12.23;1.80;;;16.60;99.90;;;;;;5034987;28;20029;-86
2021/09/19 06:02:34;;;;;;;10.25;1.83;;;16.60;99.90;;;;;;5031058;28;20036;-84
2021/09/19 06:05:00;;;;;;;9.68;1.65;;;16.60;99.90;;;;;;5031208;28;20525;-85
2021/09/19 06:07:25;;;;;;;11.93;2.75;;;16.60;99.90;;;;;;5031291;28;20052;-84
2021/09/19 06:09:51;;;;;;;9.73;1.77;;;16.50;99.90;;;;;;5033959;28;20074;-85
2021/09/19 06:12:17;;;;;;;13.10;2.10;;;16.40;99.90;;;;;;5037825;28;20032;-85
2021/09/19 06:14:43;;;;;;;12.10;1.80;;;16.50;99.90;;;;;;5020511;28;20099;-86
2021/09/19 06:17:09;;;;;;;11.27;2.00;;;16.50;99.90;;;;;;5031172;28;20034;-87
2021/09/19 06:19:34;;;;;;;12.75;2.05;;;16.50;99.90;;;;;;5031549;28;20022;-87
2021/09/19 06:22:01;;;;;;;9.13;1.90;;;16.50;99.90;;;;;;5013493;28;20520;-86
2021/09/19 06:24:28;;;;;;;12.38;2.20;;;16.50;99.90;;;;;;5031642;28;20367;-93
2021/09/19 06:26:58;;;;;;;10.20;1.63;;;16.60;99.90;;;;;;5013907;28;20068;-87
2021/09/19 06:29:24;;;;;;;10.93;1.95;;;16.50;99.90;;;;;;5032531;28;20033;-86
2021/09/19 06:31:50;;;;;;;10.15;1.60;;;16.50;99.90;;;;;;5032587;28;20026;-86
2021/09/19 06:34:16;;;;;;;8.07;1.60;;;16.50;99.90;;;;;;5030857;28;20104;-87
2021/09/19 06:36:42;;;;;;;10.73;1.88;;;16.50;99.90;;;;;;5013478;28;20478;-87
2021/09/19 06:39:08;;;;;;;11.50;1.90;;;16.50;99.90;;;;;;5033231;28;20029;-88
2021/09/19 06:41:34;;;;;;;11.23;1.80;;;16.50;99.90;;;;;;5032500;28;20505;-91
2021/09/19 06:44:00;;;;;;;10.20;1.80;;;16.50;99.90;;;;;;5038111;28;20033;-91
2021/09/19 06:46:29;;;;;;;11.43;1.70;;;16.50;99.90;;;;;;5030776;28;20104;-92
2021/09/19 06:48:56;;;;;;;7.97;1.33;;;16.60;99.90;;;;;;5013197;28;20099;-91
2021/09/19 06:51:22;;;;;;;12.23;1.75;;;16.60;99.90;;;;;;5030724;28;20021;-91
2021/09/19 06:53:48;;;;;;;9.80;1.63;;;16.60;99.90;;;;;;5030711;28;20553;-91
2021/09/19 06:56:14;;;;;;;9.02;1.33;;;16.60;99.90;;;;;;5030735;28;20392;-91
2021/09/19 06:58:40;;;;;;;10.23;1.50;;;16.60;99.90;;;;;;5012654;28;20033;-91
2021/09/19 07:01:07;;;;;;;15.45;2.22;;;16.50;99.90;;;;;;5012824;28;20051;-92
2021/09/19 07:03:34;;;;;;;5.72;1.17;;;16.60;99.90;;;;;;5030521;28;20041;-72
2021/09/19 07:06:00;;;;;;;7.38;1.33;;;16.60;99.90;;;;;;5030573;28;20087;-72
2021/09/19 07:08:26;;;;;;;8.52;1.80;;;16.70;99.90;;;;;;5030517;28;20061;-74
2021/09/19 07:10:55;;;;;;;8.88;2.10;;;16.70;99.90;;;;;;5030374;28;20024;-74
2021/09/19 07:13:23;;;;;;;7.95;1.65;;;16.70;99.90;;;;;;5029729;28;20025;-74
2021/09/19 07:15:52;;;;;;;6.63;1.23;;;16.80;99.90;;;;;;5030313;28;20359;-74
2021/09/19 07:18:20;;;;;;;7.30;1.20;;;16.80;99.90;;;;;;5030527;28;20079;-74
2021/09/19 07:20:46;;;;;;;8.30;1.30;;;16.80;99.90;;;;;;5030227;28;20071;-73
2021/09/19 07:23:11;;;;;;;7.63;1.40;;;16.80;99.90;;;;;;5029975;28;20036;-74
2021/09/19 07:25:37;;;;;;;7.50;1.30;;;16.90;99.90;;;;;;5029344;28;20017;-74
2021/09/19 07:28:04;;;;;;;7.10;1.20;;;16.90;99.90;;;;;;5033825;28;20033;-74
2021/09/19 07:30:30;;;;;;;8.48;1.92;;;17.10;99.90;;;;;;5045430;28;20039;-74
2021/09/19 07:32:57;;;;;;;6.10;0.93;;;17.10;99.90;;;;;;5034601;28;20022;-74
2021/09/19 07:35:22;;;;;;;5.25;1.08;;;17.10;99.90;;;;;;5038220;28;20017;-72
2021/09/19 07:37:49;;;;;;;6.57;1.23;;;17.10;99.90;;;;;;5039346;28;20083;-73
2021/09/19 07:59:06;;;;;;;7.07;1.20;;;17.20;99.90;;;;;;5027294;28;20393;-73
2021/09/19 08:01:31;;;;;;;5.68;1.42;;;17.30;99.90;;;;;;5026759;28;20383;-73
2021/09/19 08:32:52;;;;;;;8.73;1.00;;;17.40;99.90;;;;;;5049268;28;20783;-73
2021/09/19 08:35:18;;;;;;;7.38;1.00;;;18.00;99.90;;;;;;5032342;28;20072;-75
2021/09/19 08:37:44;;;;;;;3.92;0.90;;;18.00;99.90;;;;;;5039247;28;20536;-74
2021/09/19 08:40:11;;;;;;;5.78;0.85;;;18.00;99.90;;;;;;5030809;28;20022;-74
2021/09/19 08:42:38;;;;;;;5.03;1.00;;;18.00;99.90;;;;;;5026583;28;20505;-74
2021/09/19 08:45:06;;;;;;;5.18;1.10;;;18.00;99.90;;;;;;5043415;28;20029;-73
2021/09/19 08:47:35;;;;;;;7.43;1.48;;;18.10;99.90;;;;;;5035837;28;20025;-74
2021/09/19 08:50:02;;;;;;;6.68;1.10;;;18.10;99.90;;;;;;5033128;28;20563;-73
2021/09/19 08:52:28;;;;;;;5.93;0.73;;;18.00;99.90;;;;;;5034131;28;20021;-74
2021/09/19 08:54:53;;;;;;;6.70;1.10;;;18.00;99.90;;;;;;5039915;28;20059;-73
2021/09/19 08:57:19;;;;;;;4.88;0.80;;;18.10;99.90;;;;;;5032434;28;20073;-71
2021/09/19 08:59:49;;;;;;;5.25;1.10;;;18.20;99.90;;;;;;5028669;28;20501;-77
2021/09/19 09:02:16;;;;;;;8.05;1.50;;;18.20;99.90;;;;;;5028236;28;20073;-73
2021/09/19 09:04:43;;;;;;;5.90;1.40;;;18.20;99.90;;;;;;5027869;28;20080;-72
2021/09/19 09:07:10;;;;;;;6.32;0.82;;;18.20;99.90;;;;;;5034828;28;20026;-72
2021/09/19 09:09:36;;;;;;;7.05;1.48;;;18.40;99.90;;;;;;5035733;28;20481;-73
2021/09/19 09:12:11;;;;;;;5.50;1.05;;;18.20;99.90;;;;;;5030098;28;20049;-77
2021/09/19 09:14:47;;;;;;;7.28;1.33;;;18.30;99.90;;;;;;5033318;28;20501;-73
2021/09/19 09:17:21;;;;;;;6.97;1.88;;;18.40;99.90;;;;;;5030593;28;20445;-73
2021/09/19 09:19:50;;;;;;;6.53;1.00;;;18.40;99.90;;;;;;5029633;28;20083;-73
2021/09/19 09:22:21;;;;;;;7.47;1.48;;;18.50;99.90;;;;;;5028395;28;20076;-75
2021/09/19 09:25:12;;;;;;;5.43;1.77;;;18.50;99.90;;;;;;5027524;28;20025;-79
2021/09/19 09:27:41;;;;;;;7.63;1.38;;;18.60;99.90;;;;;;5028880;28;20108;-74
2021/09/19 09:30:19;;;;;;;10.18;1.77;;;18.50;99.90;;;;;;5042999;28;20064;-74
2021/09/19 09:32:57;;;;;;;7.07;1.58;;;18.60;99.90;;;;;;5029172;28;20529;-74
2021/09/19 09:35:29;;;;;;;4.47;1.13;;;18.70;99.90;;;;;;5032735;28;20055;-74
2021/09/19 09:37:55;;;;;;;6.25;1.35;;;18.80;99.90;;;;;;5023482;28;20104;-74
2021/09/19 09:40:31;;;;;;;4.97;0.75;;;18.80;99.90;;;;;;5036670;28;20057;-74
2021/09/19 09:43:03;;;;;;;5.80;1.23;;;18.70;99.90;;;;;;5032897;28;20064;-74
2021/09/19 09:45:30;;;;;;;4.82;1.88;;;18.60;99.90;;;;;;5039573;28;20026;-74
2021/09/19 09:47:56;;;;;;;7.30;1.52;;;18.60;99.90;;;;;;5029244;28;20091;-74
2021/09/19 09:50:29;;;;;;;7.70;1.60;;;18.70;99.90;;;;;;5027727;28;20116;-74
2021/09/19 09:53:21;;;;;;;9.98;1.45;;;18.80;99.90;;;;;;5027412;28;20028;-76
2021/09/19 09:55:48;;;;;;;6.90;1.88;;;18.90;99.90;;;;;;5019514;28;20018;-75
2021/09/19 09:58:18;;;;;;;8.82;1.42;;;19.00;99.90;;;;;;5018278;28;20026;-74
2021/09/19 10:00:49;;;;;;;7.20;1.10;;;19.00;99.90;;;;;;5029044;28;20385;-75
2021/09/19 10:03:16;;;;;;;6.65;1.20;;;19.00;99.90;;;;;;5031749;28;20052;-75
2021/09/19 10:05:42;;;;;;;5.88;1.52;;;19.10;99.90;;;;;;5034136;28;20030;-76
2021/09/19 10:08:09;;;;;;;6.78;1.98;;;19.00;99.90;;;;;;5027887;28;20389;-76
2021/09/19 10:10:46;;;;;;;7.47;1.45;;;19.10;99.90;;;;;;5034534;28;20006;-76
2021/09/19 10:13:14;;;;;;;7.55;1.20;;;19.10;99.90;;;;;;5038608;28;20388;-92
2021/09/19 10:15:41;;;;;;;7.55;1.70;;;19.10;99.90;;;;;;5038100;28;20365;-89
2021/09/19 10:18:09;;;;;;;7.45;2.65;;;19.10;99.90;;;;;;5038222;28;20032;-89
2021/09/19 10:20:44;;;;;;;4.90;1.20;;;19.20;99.90;;;;;;5056476;28;20319;-90
2021/09/19 10:23:25;;;;;;;11.60;2.92;;;19.20;99.90;;;;;;5027134;28;20029;-86
2021/09/19 10:25:56;;;;;;;7.32;1.50;;;19.40;99.90;;;;;;5018480;28;20010;-84
2021/09/19 10:28:34;;;;;;;9.13;1.30;;;19.40;99.90;;;;;;5018234;28;20026;-83
2021/09/19 10:31:09;;;;;;;9.73;2.85;;;19.40;99.90;;;;;;5028366;28;20057;-86
2021/09/19 10:33:45;;;;;;;10.48;2.58;;;19.40;99.90;;;;;;5017273;28;20506;-85
2021/09/19 10:36:29;;;;;;;5.57;1.48;;;19.50;99.90;;;;;;5021362;28;20021;-87
2021/09/19 10:39:22;;;;;;;6.90;1.30;;;19.40;99.90;;;;;;5018084;28;20021;-86
2021/09/19 10:42:05;;;;;;;7.40;1.40;;;19.40;99.90;;;;;;5012199;28;20050;-85
2021/09/19 10:44:49;;;;;;;5.80;1.10;;;19.50;99.90;;;;;;5028924;28;20037;-86
2021/09/19 10:47:34;;;;;;;8.57;1.55;;;19.60;99.90;;;;;;5029487;28;20025;-86
2021/09/19 10:50:25;;;;;;;10.00;1.85;;;19.70;99.90;;;;;;5031040;28;20026;-85
2021/09/19 10:52:59;;;;;;;13.55;1.70;;;19.70;99.90;;;;;;5030901;28;20028;-86
2021/09/19 10:55:28;;;;;;;5.82;1.15;;;19.70;99.90;;;;;;5030939;28;20100;-86
2021/09/19 10:57:57;;;;;;;5.20;0.98;;;19.80;99.90;;;;;;5026861;28;20029;-85
2021/09/19 11:00:24;;;;;;;8.68;1.58;;;20.00;99.90;;;;;;5030541;28;20017;-86
2021/09/19 11:03:02;;;;;;;6.70;1.15;;;20.00;99.90;;;;;;5017222;28;20056;-86
2021/09/19 11:05:43;;;;;;;7.53;1.13;;;20.00;99.90;;;;;;5022617;28;20045;-87
2021/09/19 11:08:09;;;;;;;8.70;1.88;;;20.10;99.90;;;;;;5030584;28;20024;-87
2021/09/19 11:10:45;;;;;;;6.35;1.27;;;20.00;99.90;;;;;;5030688;28;20022;-86
2021/09/19 11:13:28;;;;;;;6.90;1.45;;;20.00;99.90;;;;;;5020978;28;20046;-86
2021/09/19 11:16:18;;;;;;;6.22;1.00;;;20.20;99.90;;;;;;5022896;28;20433;-86
2021/09/19 11:18:46;;;;;;;7.35;1.40;;;20.10;99.90;;;;;;5022086;28;20452;-86
2021/09/19 11:21:14;;;;;;;7.45;1.35;;;20.20;99.90;;;;;;5022635;28;20456;-86
2021/09/19 11:23:50;;;;;;;6.10;1.33;;;20.20;99.90;;;;;;5030966;28;20082;-87
2021/09/19 11:26:18;;;;;;;10.55;2.10;;;20.30;99.90;;;;;;5017326;28;20022;-86
2021/09/19 11:28:45;;;;;;;8.25;1.48;;;20.40;99.90;;;;;;5017658;28;20029;-86
2021/09/19 11:31:11;;;;;;;5.20;1.05;;;20.50;99.90;;;;;;5030432;28;20567;-86
2021/09/19 11:33:37;;;;;;;5.93;1.25;;;20.40;99.90;;;;;;5021589;28;20026;-86
2021/09/19 11:36:09;;;;;;;7.68;1.50;;;20.50;99.90;;;;;;5022367;28;20021;-86
2021/09/19 11:38:36;;;;;;;8.07;1.50;;;20.70;99.90;;;;;;5028678;28;20025;-87
2021/09/19 11:41:02;;;;;;;11.10;1.73;;;20.70;99.90;;;;;;5030384;28;20026;-87
2021/09/19 11:43:29;;;;;;;6.82;1.23;;;20.70;99.90;;;;;;5024947;28;20026;-86
2021/09/19 11:45:55;;;;;;;14.30;1.58;;;20.80;99.90;;;;;;5027892;28;20013;-87
2021/09/19 11:48:21;;;;;;;5.90;1.23;;;20.80;99.90;;;;;;5015207;28;20041;-86
2021/09/19 11:50:48;;;;;;;7.95;1.10;;;20.60;99.90;;;;;;5019200;28;20462;-86
2021/09/19 11:53:15;;;;;;;6.97;1.45;;;20.50;99.90;;;;;;5029837;28;20017;-86
2021/09/19 11:55:45;;;;;;;8.50;1.23;;;20.50;99.90;;;;;;5029765;28;20030;-87
2021/09/19 11:58:15;;;;;;;6.47;1.10;;;20.50;99.90;;;;;;5030053;28;20550;-87
2021/09/19 12:00:42;;;;;;;6.30;1.13;;;20.40;99.90;;;;;;5029729;28;20108;-87
2021/09/19 12:03:08;;;;;;;8.65;1.20;;;20.40;99.90;;;;;;5015234;28;20528;-88
2021/09/19 12:05:34;;;;;;;6.70;1.55;;;20.50;99.90;;;;;;5029945;28;20018;-86
2021/09/19 12:08:00;;;;;;;9.93;1.30;;;20.70;99.90;;;;;;5028136;28;20504;-87
2021/09/19 12:10:26;;;;;;;8.13;1.20;;;20.70;99.90;;;;;;5029583;28;20489;-87
2021/09/19 12:12:52;;;;;;;5.68;1.33;;;20.70;99.90;;;;;;5026423;28;20057;-87
2021/09/19 12:15:25;;;;;;;4.72;1.27;;;20.80;99.90;;;;;;5018431;28;20511;-87
2021/09/19 12:18:06;;;;;;;6.30;1.65;;;21.00;99.90;;;;;;5025906;28;20071;-87
2021/09/19 12:20:33;;;;;;;9.48;1.42;;;21.10;99.90;;;;;;5029617;28;20037;-87
2021/09/19 12:23:17;;;;;;;15.50;2.60;;;21.00;99.90;;;;;;5016122;28;20092;-86
2021/09/19 12:25:50;;;;;;;8.87;1.40;;;20.80;99.90;;;;;;5019641;28;20021;-86
2021/09/19 12:28:33;;;;;;;7.32;1.38;;;20.80;99.90;;;;;;5021734;28;20024;-87
2021/09/19 12:31:00;;;;;;;8.32;1.73;;;20.80;99.90;;;;;;5029536;28;20049;-87
2021/09/19 12:33:26;;;;;;;9.60;1.50;;;20.90;99.90;;;;;;5029208;28;20053;-87
2021/09/19 12:35:52;;;;;;;8.13;1.40;;;21.00;99.90;;;;;;5029376;28;20033;-88
2021/09/19 12:38:19;;;;;;;6.85;1.23;;;21.00;99.90;;;;;;5025861;28;20026;-87
2021/09/19 12:40:45;;;;;;;8.05;1.20;;;21.10;99.90;;;;;;5029434;28;20030;-87
2021/09/19 12:43:16;;;;;;;7.20;1.25;;;21.30;99.90;;;;;;5022379;28;20386;-87
2021/09/19 12:45:53;;;;;;;8.13;1.13;;;21.30;99.90;;;;;;5015074;28;20236;-87
2021/09/19 12:48:24;;;;;;;6.82;1.25;;;21.20;99.90;;;;;;5026400;28;20141;-86
2021/09/19 12:51:02;;;;;;;6.50;1.83;;;21.10;99.90;;;;;;5028955;28;20025;-86
2021/09/19 12:53:30;;;;;;;12.10;1.50;;;21.10;99.90;;;;;;5029403;28;20052;-86
2021/09/19 12:55:57;;;;;;;5.88;1.10;;;21.10;99.90;;;;;;5022718;28;20482;-86
2021/09/19 12:58:24;;;;;;;10.80;1.50;;;21.20;99.90;;;;;;5017225;28;20072;-86
2021/09/19 13:00:51;;;;;;;8.32;1.75;;;21.30;99.90;;;;;;5016899;28;20480;-87
2021/09/19 13:03:22;;;;;;;6.57;1.35;;;21.50;99.90;;;;;;5020649;28;20072;-87
2021/09/19 13:05:49;;;;;;;7.47;1.50;;;21.20;99.90;;;;;;5028875;28;20390;-86
2021/09/19 13:08:15;;;;;;;7.53;1.20;;;21.30;99.90;;;;;;5024491;28;20489;-87
2021/09/19 13:10:40;;;;;;;6.28;1.52;;;21.50;99.90;;;;;;5032883;28;20083;-86
2021/09/19 13:13:06;;;;;;;9.20;1.67;;;21.40;99.90;;;;;;5032799;28;20083;-86
2021/09/19 13:15:32;;;;;;;7.95;1.50;;;21.20;99.90;;;;;;5032668;28;20022;-86
2021/09/19 13:17:59;;;;;;;5.72;1.25;;;21.30;99.90;;;;;;5032910;28;20021;-85
2021/09/19 13:20:25;;;;;;;6.30;1.02;;;21.30;99.90;;;;;;5032412;28;20105;-85
2021/09/19 13:22:52;;;;;;;5.57;1.05;;;21.50;99.90;;;;;;5032951;28;20035;-85
2021/09/19 13:25:18;;;;;;;8.43;1.60;;;21.40;99.90;;;;;;5019146;28;20025;-86
2021/09/19 13:27:44;;;;;;;8.57;1.38;;;21.30;99.90;;;;;;5032710;28;20049;-85
2021/09/19 13:30:11;;;;;;;5.97;1.20;;;21.20;99.90;;;;;;5032606;28;20022;-85
2021/09/19 13:32:37;;;;;;;8.20;1.10;;;21.20;99.90;;;;;;5032457;28;20060;-86
2021/09/19 13:35:04;;;;;;;6.28;1.38;;;21.40;99.90;;;;;;5032364;28;20037;-86